Time;durP1;ratioP1;P1;durP2;ratioP2;P2;SDS_P1;SDS_P2;PMS_P1;PMS_P2;Temp;Humidity;BMP_temperature;BMP_pressure;BME280_temperature;BME280_humidity;BME280_pressure;Samples;Min_cycle;Max_cycle;Signal;HPM_P1;HPM_P2
2023/03/03 00:00:58;;;;;;;6.03;3.85;;;2.20;89.80;;;;;;5114633;28;20036;-75
2023/03/03 00:03:26;;;;;;;6.13;3.03;;;2.20;89.60;;;;;;5114516;28;20050;-75
2023/03/03 00:05:52;;;;;;;6.50;2.80;;;2.10;89.40;;;;;;5114391;28;20054;-77
2023/03/03 00:08:20;;;;;;;4.50;3.40;;;2.00;89.30;;;;;;5114148;28;20044;-76
2023/03/03 00:10:46;;;;;;;8.88;4.70;;;1.90;89.20;;;;;;5097745;28;20067;-75
2023/03/03 00:13:17;;;;;;;7.32;4.40;;;1.80;89.10;;;;;;5097620;28;20040;-76
2023/03/03 00:15:43;;;;;;;6.45;3.83;;;1.70;89.10;;;;;;5114319;28;20122;-75
2023/03/03 00:18:21;;;;;;;8.52;3.33;;;1.70;89.20;;;;;;5114085;28;20467;-75
2023/03/03 00:20:59;;;;;;;6.28;3.60;;;1.60;89.20;;;;;;5114534;28;20040;-76
2023/03/03 00:23:30;;;;;;;4.70;2.45;;;1.60;89.30;;;;;;5097002;28;20040;-75
2023/03/03 00:25:57;;;;;;;4.47;2.97;;;1.50;89.30;;;;;;5097340;28;20043;-76
2023/03/03 00:28:50;;;;;;;6.03;3.22;;;1.50;89.40;;;;;;5096794;28;20039;-76
2023/03/03 00:31:36;;;;;;;5.55;2.90;;;1.40;89.30;;;;;;5113372;28;20135;-75
2023/03/03 00:34:26;;;;;;;5.15;2.78;;;1.40;89.30;;;;;;5114200;28;20031;-75
2023/03/03 00:36:54;;;;;;;7.57;2.88;;;1.30;89.20;;;;;;5113875;28;20046;-75
2023/03/03 00:39:35;;;;;;;5.80;3.83;;;1.30;89.30;;;;;;5113702;28;20044;-75
2023/03/03 00:42:04;;;;;;;4.50;2.47;;;1.20;89.20;;;;;;5113830;28;20083;-75
2023/03/03 00:44:45;;;;;;;5.13;3.22;;;1.20;89.10;;;;;;5113697;28;20043;-75
2023/03/03 00:47:25;;;;;;;8.95;4.75;;;1.10;89.20;;;;;;5113931;28;20044;-76
2023/03/03 00:49:53;;;;;;;8.00;4.60;;;1.10;89.30;;;;;;5113027;28;20044;-75
2023/03/03 00:52:20;;;;;;;9.10;6.40;;;1.10;89.30;;;;;;5113361;28;20043;-76
2023/03/03 00:54:46;;;;;;;7.70;5.20;;;1.00;89.20;;;;;;5114688;27;20432;-74
2023/03/03 00:57:12;;;;;;;10.40;5.85;;;1.10;89.30;;;;;;5116876;27;20035;-75
2023/03/03 00:59:39;;;;;;;14.65;6.47;;;1.00;89.20;;;;;;5117002;27;20047;-74
2023/03/03 01:02:05;;;;;;;8.20;6.32;;;1.00;89.20;;;;;;5099857;27;20045;-74
2023/03/03 01:04:30;;;;;;;8.23;5.13;;;1.00;89.10;;;;;;5099837;27;20051;-74
2023/03/03 01:06:56;;;;;;;6.38;4.70;;;1.00;89.10;;;;;;5099620;27;20039;-75
2023/03/03 01:09:22;;;;;;;9.15;3.88;;;0.90;89.10;;;;;;5116252;27;20097;-75
2023/03/03 01:11:49;;;;;;;5.65;3.90;;;0.90;89.10;;;;;;5116538;27;20039;-75
2023/03/03 01:14:15;;;;;;;6.75;3.50;;;0.90;89.00;;;;;;5116294;27;20043;-74
2023/03/03 01:16:40;;;;;;;5.20;3.05;;;0.90;89.00;;;;;;5116475;27;20099;-75
2023/03/03 01:19:07;;;;;;;6.25;2.78;;;0.90;89.00;;;;;;5099469;27;20039;-74
2023/03/03 01:21:32;;;;;;;5.75;2.55;;;0.90;89.00;;;;;;5099294;27;20039;-74
2023/03/03 01:23:58;;;;;;;5.47;2.17;;;0.90;89.00;;;;;;5116161;27;20050;-74
2023/03/03 01:26:24;;;;;;;4.50;2.33;;;0.90;89.10;;;;;;5082709;27;20042;-74
2023/03/03 01:28:50;;;;;;;6.53;2.97;;;0.90;89.10;;;;;;5115437;27;20049;-74
2023/03/03 01:31:16;;;;;;;4.65;2.78;;;0.90;89.20;;;;;;5115885;27;20474;-74
2023/03/03 01:33:42;;;;;;;5.90;2.60;;;0.90;89.20;;;;;;5115709;27;20042;-74
2023/03/03 01:36:08;;;;;;;7.25;3.38;;;0.90;89.10;;;;;;5099146;27;20035;-75
2023/03/03 01:38:37;;;;;;;6.25;2.80;;;0.80;88.90;;;;;;5098820;27;20035;-75
2023/03/03 01:41:03;;;;;;;3.40;2.55;;;0.80;89.00;;;;;;5115764;27;20039;-74
2023/03/03 01:43:31;;;;;;;3.83;2.40;;;0.70;89.00;;;;;;5115960;27;20046;-75
2023/03/03 01:45:57;;;;;;;5.55;2.30;;;0.70;88.90;;;;;;5082364;27;20137;-74
2023/03/03 01:48:41;;;;;;;8.13;2.75;;;0.70;88.90;;;;;;5116026;27;20633;-74
2023/03/03 01:51:24;;;;;;;3.55;1.90;;;0.70;88.90;;;;;;5098874;28;20444;-74
2023/03/03 01:53:55;;;;;;;5.13;1.92;;;0.70;88.90;;;;;;5098945;27;20031;-75
2023/03/03 01:56:21;;;;;;;4.57;1.67;;;0.70;88.90;;;;;;5115894;27;20094;-74
2023/03/03 01:59:21;;;;;;;5.18;1.83;;;0.70;88.90;;;;;;5098826;28;20594;-75
2023/03/03 02:01:47;;;;;;;3.15;1.73;;;0.70;88.80;;;;;;5115286;28;20039;-75
2023/03/03 02:04:14;;;;;;;3.83;1.50;;;0.80;88.90;;;;;;5115770;28;20050;-73
2023/03/03 02:06:43;;;;;;;4.57;1.77;;;0.80;88.90;;;;;;5098818;28;20050;-74
2023/03/03 02:09:34;;;;;;;4.88;1.75;;;0.80;88.90;;;;;;5098636;28;20126;-74
2023/03/03 02:12:04;;;;;;;4.13;1.52;;;0.80;88.90;;;;;;5115567;28;20031;-74
2023/03/03 02:14:30;;;;;;;4.53;1.35;;;0.80;88.90;;;;;;5116085;28;20031;-74
2023/03/03 02:16:56;;;;;;;4.78;1.50;;;0.80;89.00;;;;;;5115819;28;20505;-75
2023/03/03 02:19:30;;;;;;;2.45;1.30;;;0.80;89.00;;;;;;5115789;28;20035;-73
2023/03/03 02:21:56;;;;;;;;;;;0.80;89.00;;;;;;5116266;28;20042;-74
2023/03/03 02:24:32;;;;;;;7.22;1.60;;;0.90;89.20;;;;;;5115828;28;19952;-75
2023/03/03 02:26:57;;;;;;;4.82;1.48;;;0.90;89.20;;;;;;5115728;28;20043;-75
2023/03/03 02:29:23;;;;;;;7.93;1.73;;;0.90;89.30;;;;;;5115545;28;20107;-75
2023/03/03 02:31:49;;;;;;;4.60;1.60;;;1.00;89.50;;;;;;5115605;28;20072;-75
2023/03/03 02:34:14;;;;;;;4.72;1.30;;;1.00;89.60;;;;;;5098892;28;20118;-74
2023/03/03 02:36:40;;;;;;;3.92;1.65;;;1.10;89.70;;;;;;5081820;28;20039;-74
2023/03/03 02:39:14;;;;;;;5.30;1.63;;;1.10;89.80;;;;;;5115396;28;20103;-75
2023/03/03 02:42:05;;;;;;;4.85;1.75;;;1.10;89.80;;;;;;5115741;28;20051;-76
2023/03/03 02:44:32;;;;;;;1.90;1.38;;;1.10;89.80;;;;;;5115702;28;20122;-76
2023/03/03 02:46:58;;;;;;;4.78;1.70;;;1.10;90.00;;;;;;5115839;28;20539;-74
2023/03/03 02:49:30;;;;;;;4.68;1.33;;;1.10;90.00;;;;;;5098603;28;20042;-75
2023/03/03 02:51:57;;;;;;;3.38;1.20;;;1.10;90.00;;;;;;5115557;28;20039;-76
2023/03/03 02:54:26;;;;;;;2.83;1.38;;;1.10;90.10;;;;;;5098849;28;20051;-74
2023/03/03 02:56:52;;;;;;;6.35;1.65;;;1.20;89.90;;;;;;5111852;28;20047;-76
2023/03/03 02:59:18;;;;;;;3.90;1.33;;;1.30;89.90;;;;;;5111952;28;20043;-75
2023/03/03 03:01:45;;;;;;;4.40;2.28;;;1.30;90.00;;;;;;5095300;28;20487;-74
2023/03/03 03:04:14;;;;;;;4.85;1.70;;;1.30;89.80;;;;;;5095260;28;20110;-75
2023/03/03 03:06:40;;;;;;;4.32;1.85;;;1.30;89.70;;;;;;5112517;28;20043;-75
2023/03/03 03:09:08;;;;;;;5.78;1.90;;;1.40;89.80;;;;;;5111825;28;20128;-74
2023/03/03 03:11:34;;;;;;;7.38;1.92;;;1.50;89.70;;;;;;5111824;28;20128;-74
2023/03/03 03:14:01;;;;;;;4.60;1.60;;;1.50;89.60;;;;;;5079452;28;20122;-75
2023/03/03 03:16:27;;;;;;;3.35;1.95;;;1.50;90.00;;;;;;5098669;28;20051;-75
2023/03/03 03:18:52;;;;;;;5.13;1.73;;;1.60;90.20;;;;;;5115615;28;20394;-75
2023/03/03 03:21:18;;;;;;;7.78;1.48;;;1.60;90.30;;;;;;5081581;28;20036;-76
2023/03/03 03:23:44;;;;;;;5.13;2.03;;;1.60;89.80;;;;;;5098406;28;20035;-75
2023/03/03 03:26:10;;;;;;;4.43;1.60;;;1.60;90.30;;;;;;5115266;28;20043;-75
2023/03/03 03:28:36;;;;;;;6.53;1.73;;;1.70;89.90;;;;;;5115168;28;20099;-74
2023/03/03 03:31:04;;;;;;;3.20;1.20;;;1.70;90.10;;;;;;5115139;28;20505;-76
2023/03/03 03:33:30;;;;;;;4.25;1.98;;;1.80;90.20;;;;;;5098394;28;20043;-75
2023/03/03 03:35:56;;;;;;;4.70;1.38;;;1.80;90.00;;;;;;5115365;28;20421;-75
2023/03/03 03:38:24;;;;;;;4.10;1.52;;;1.80;90.00;;;;;;5114971;28;20130;-76
2023/03/03 03:40:50;;;;;;;7.72;1.50;;;1.90;90.20;;;;;;5115122;28;20039;-75
2023/03/03 03:43:16;;;;;;;5.22;2.67;;;1.90;90.30;;;;;;5114984;28;20398;-75
2023/03/03 03:45:42;;;;;;;3.95;1.30;;;1.90;90.30;;;;;;5081084;28;20126;-75
2023/03/03 03:48:08;;;;;;;4.85;1.38;;;1.90;90.30;;;;;;5114992;28;20122;-76
2023/03/03 03:50:34;;;;;;;3.10;1.20;;;1.90;90.10;;;;;;5114765;28;20496;-75
2023/03/03 03:53:00;;;;;;;3.67;1.38;;;2.00;90.40;;;;;;5114697;28;20080;-75
2023/03/03 03:55:25;;;;;;;3.10;1.20;;;2.00;90.40;;;;;;5097626;28;20048;-74
2023/03/03 03:57:51;;;;;;;5.88;1.45;;;2.00;90.50;;;;;;5097827;28;20465;-75
2023/03/03 04:00:17;;;;;;;4.05;1.35;;;2.00;90.60;;;;;;5097765;28;20126;-75
2023/03/03 04:02:42;;;;;;;5.45;1.58;;;2.00;90.50;;;;;;5114656;28;20035;-75
2023/03/03 04:05:09;;;;;;;5.57;1.50;;;2.00;90.50;;;;;;5115437;28;20035;-74
2023/03/03 04:07:34;;;;;;;4.97;1.40;;;2.00;90.40;;;;;;5114283;28;20035;-74
2023/03/03 04:10:00;;;;;;;3.08;1.20;;;2.00;90.50;;;;;;5114561;28;20043;-75
2023/03/03 04:12:26;;;;;;;4.80;1.35;;;2.00;90.50;;;;;;5114542;28;20444;-75
2023/03/03 04:14:51;;;;;;;3.65;1.23;;;1.90;90.60;;;;;;5097627;28;20031;-75
2023/03/03 04:17:19;;;;;;;5.25;1.40;;;1.90;90.50;;;;;;5114555;28;20043;-75
2023/03/03 04:19:46;;;;;;;5.75;1.40;;;2.00;90.50;;;;;;5114578;28;20555;-75
2023/03/03 04:22:12;;;;;;;2.20;1.10;;;1.80;90.80;;;;;;5114441;28;20032;-75
2023/03/03 04:24:39;;;;;;;4.82;1.30;;;1.80;90.80;;;;;;5096922;28;20050;-75
2023/03/03 04:27:05;;;;;;;2.70;1.70;;;1.80;90.60;;;;;;5097599;28;20471;-74
2023/03/03 04:29:31;;;;;;;4.03;1.58;;;1.80;90.60;;;;;;5114225;28;20108;-76
2023/03/03 04:31:57;;;;;;;3.72;1.40;;;1.80;90.70;;;;;;5114073;28;20035;-74
2023/03/03 04:34:22;;;;;;;6.40;1.60;;;1.80;90.60;;;;;;5097181;28;20089;-75
2023/03/03 04:36:48;;;;;;;5.15;1.50;;;1.70;90.50;;;;;;5113965;28;20441;-75
2023/03/03 04:39:14;;;;;;;9.25;2.45;;;1.70;90.50;;;;;;5113753;28;20043;-74
2023/03/03 04:41:39;;;;;;;2.80;1.13;;;1.70;90.60;;;;;;5113844;28;20126;-75
2023/03/03 04:44:05;;;;;;;5.07;1.42;;;1.70;90.60;;;;;;5113991;28;20043;-74
2023/03/03 04:46:31;;;;;;;4.35;1.52;;;1.60;90.80;;;;;;5113962;28;20558;-75
2023/03/03 04:48:57;;;;;;;2.47;1.30;;;1.60;90.80;;;;;;5113516;28;20079;-76
2023/03/03 04:51:22;;;;;;;4.43;1.25;;;1.60;90.80;;;;;;5079759;28;20040;-75
2023/03/03 04:53:48;;;;;;;4.43;1.30;;;1.60;91.00;;;;;;5113622;28;20056;-76
2023/03/03 04:56:14;;;;;;;5.13;1.80;;;1.60;90.80;;;;;;5079567;28;20058;-76
2023/03/03 04:58:40;;;;;;;5.80;1.77;;;1.60;90.80;;;;;;5113317;28;20051;-74
2023/03/03 05:01:06;;;;;;;5.28;1.70;;;1.60;90.70;;;;;;5113480;28;20047;-76
2023/03/03 05:03:31;;;;;;;3.50;1.60;;;1.60;90.90;;;;;;5113471;28;20071;-76
2023/03/03 05:05:57;;;;;;;4.47;1.55;;;1.60;91.00;;;;;;5113807;28;20043;-75
2023/03/03 05:08:23;;;;;;;5.97;1.60;;;1.60;90.90;;;;;;5113118;28;20392;-75
2023/03/03 05:10:53;;;;;;;5.43;1.15;;;1.60;90.70;;;;;;5113655;28;20035;-75
2023/03/03 05:13:18;;;;;;;7.97;2.88;;;1.60;90.80;;;;;;5079593;28;20107;-75
2023/03/03 05:15:49;;;;;;;5.53;1.50;;;1.60;90.90;;;;;;5079290;28;20475;-75
2023/03/03 05:18:16;;;;;;;7.50;1.63;;;1.60;90.90;;;;;;5113102;28;20071;-74
2023/03/03 05:20:42;;;;;;;5.57;1.50;;;1.50;90.90;;;;;;5079469;28;20443;-75
2023/03/03 05:23:08;;;;;;;6.72;1.90;;;1.50;91.00;;;;;;5096390;28;20126;-75
2023/03/03 05:25:33;;;;;;;3.67;1.35;;;1.50;91.10;;;;;;5112999;28;20518;-75
2023/03/03 05:27:59;;;;;;;5.43;1.38;;;1.50;91.10;;;;;;5095831;28;20039;-75
2023/03/03 05:30:24;;;;;;;3.83;1.20;;;1.60;91.00;;;;;;5095977;28;20043;-76
2023/03/03 05:32:50;;;;;;;7.43;1.63;;;1.60;91.10;;;;;;5079312;28;20031;-74
2023/03/03 05:35:16;;;;;;;7.00;1.77;;;1.50;91.20;;;;;;5113250;28;20071;-76
2023/03/03 05:37:46;;;;;;;4.57;1.45;;;1.50;91.40;;;;;;5112357;28;20039;-76
2023/03/03 05:40:13;;;;;;;6.72;1.52;;;1.40;91.40;;;;;;5112681;28;20040;-76
2023/03/03 05:42:39;;;;;;;7.00;1.30;;;1.50;91.40;;;;;;5079371;28;20054;-75
2023/03/03 05:45:05;;;;;;;3.58;1.20;;;1.40;91.40;;;;;;5095738;28;20031;-75
2023/03/03 05:47:30;;;;;;;3.72;1.27;;;1.40;91.40;;;;;;5112676;28;20071;-76
2023/03/03 05:49:56;;;;;;;5.78;1.92;;;1.40;91.40;;;;;;5112569;28;20495;-76
2023/03/03 05:52:23;;;;;;;4.25;1.48;;;1.30;91.30;;;;;;5112689;28;20130;-75
2023/03/03 05:54:49;;;;;;;3.15;1.48;;;1.20;91.30;;;;;;5097185;28;20040;-75
2023/03/03 05:57:15;;;;;;;4.00;1.55;;;1.20;91.30;;;;;;5115831;27;20545;-75
2023/03/03 05:59:40;;;;;;;4.88;1.85;;;1.20;91.20;;;;;;5115831;28;20180;-75
2023/03/03 06:02:06;;;;;;;4.63;2.05;;;1.10;91.10;;;;;;5116079;28;20039;-75
2023/03/03 06:04:32;;;;;;;3.53;2.05;;;1.10;91.10;;;;;;5115874;28;20449;-75
2023/03/03 06:06:58;;;;;;;5.55;2.25;;;1.10;91.10;;;;;;5115504;28;20049;-76
2023/03/03 06:09:25;;;;;;;4.75;2.15;;;1.10;91.00;;;;;;5115463;28;20039;-75
2023/03/03 06:11:52;;;;;;;5.15;2.15;;;1.10;91.10;;;;;;5115456;28;20498;-76
2023/03/03 06:14:19;;;;;;;4.13;2.17;;;1.10;91.00;;;;;;5098741;28;20043;-75
2023/03/03 06:16:49;;;;;;;5.18;2.65;;;1.10;91.00;;;;;;5098288;28;20046;-76
2023/03/03 06:19:14;;;;;;;4.45;2.03;;;1.10;91.00;;;;;;5115204;28;20036;-76
2023/03/03 06:21:41;;;;;;;6.47;1.95;;;1.10;91.10;;;;;;5115629;28;20043;-75
2023/03/03 06:24:07;;;;;;;4.53;1.70;;;1.10;91.00;;;;;;5098971;28;20039;-75
2023/03/03 06:26:33;;;;;;;3.40;1.60;;;1.00;91.00;;;;;;5115735;28;20039;-75
2023/03/03 06:28:59;;;;;;;7.68;1.40;;;1.00;90.90;;;;;;5098667;28;20072;-76
2023/03/03 06:31:25;;;;;;;3.55;1.40;;;1.00;90.90;;;;;;5098676;28;20035;-75
2023/03/03 06:33:51;;;;;;;6.78;1.80;;;1.00;90.90;;;;;;5098758;28;20043;-75
2023/03/03 06:36:18;;;;;;;3.65;1.58;;;0.90;90.80;;;;;;5081986;28;20364;-75
2023/03/03 06:38:44;;;;;;;5.10;1.88;;;1.00;90.80;;;;;;5115544;28;20075;-75
2023/03/03 06:41:10;;;;;;;4.38;1.50;;;0.90;90.80;;;;;;5115594;28;20050;-76
2023/03/03 06:43:36;;;;;;;7.28;1.88;;;0.90;90.70;;;;;;5082073;28;20051;-77
2023/03/03 06:46:03;;;;;;;2.90;1.67;;;1.00;90.70;;;;;;5115599;28;20055;-75
2023/03/03 06:48:30;;;;;;;5.90;1.52;;;1.00;90.80;;;;;;5100212;27;20044;-75
2023/03/03 06:50:56;;;;;;;3.60;1.50;;;0.90;90.70;;;;;;5119599;27;20390;-76
2023/03/03 06:53:22;;;;;;;3.30;1.75;;;0.90;90.70;;;;;;5102482;27;20031;-75
2023/03/03 06:55:47;;;;;;;4.10;1.40;;;1.00;90.70;;;;;;5102136;27;20403;-74
2023/03/03 06:58:19;;;;;;;5.10;1.15;;;1.00;90.70;;;;;;5119476;27;20047;-75
2023/03/03 07:00:55;;;;;;;3.50;1.40;;;1.00;90.60;;;;;;5119113;27;20035;-76
2023/03/03 07:03:28;;;;;;;5.88;1.50;;;1.00;90.70;;;;;;5119378;27;20043;-75
2023/03/03 07:05:54;;;;;;;8.80;2.58;;;1.00;90.60;;;;;;5119341;27;20394;-75
2023/03/03 07:08:22;;;;;;;5.38;1.45;;;1.00;90.60;;;;;;5119069;27;20129;-75
2023/03/03 07:10:50;;;;;;;3.90;1.75;;;1.00;90.70;;;;;;5085282;27;20035;-74
2023/03/03 07:13:17;;;;;;;3.35;1.90;;;1.00;90.70;;;;;;5101747;27;20045;-75
2023/03/03 07:15:43;;;;;;;3.30;2.15;;;1.10;90.70;;;;;;5118847;27;20517;-76
2023/03/03 07:18:40;;;;;;;4.10;2.10;;;1.10;90.70;;;;;;5132932;27;20035;-76
2023/03/03 07:21:16;;;;;;;4.47;2.33;;;1.10;90.70;;;;;;5118532;27;20039;-77
2023/03/03 07:23:43;;;;;;;4.63;2.03;;;1.10;90.80;;;;;;5101910;27;20043;-77
2023/03/03 07:26:25;;;;;;;5.00;2.70;;;1.20;90.80;;;;;;5118617;27;20122;-76
2023/03/03 07:29:02;;;;;;;6.28;3.30;;;1.20;90.80;;;;;;5094759;27;20040;-75
2023/03/03 07:31:35;;;;;;;5.22;2.63;;;1.20;90.80;;;;;;5098906;27;20058;-77
2023/03/03 07:34:14;;;;;;;7.33;4.33;;;1.30;90.80;;;;;;5101508;27;20421;-77
2023/03/03 07:36:40;;;;;;;8.57;3.88;;;1.30;90.80;;;;;;5118465;27;20035;-76
2023/03/03 07:39:18;;;;;;;9.85;3.40;;;1.40;90.80;;;;;;5112526;27;20037;-75
2023/03/03 07:41:43;;;;;;;5.50;3.33;;;1.40;90.80;;;;;;5101023;27;20053;-76
2023/03/03 07:44:23;;;;;;;8.95;3.75;;;1.40;90.80;;;;;;5084451;27;20035;-76
2023/03/03 07:46:50;;;;;;;5.45;3.17;;;1.50;90.90;;;;;;5118685;27;20391;-74
2023/03/03 07:49:29;;;;;;;6.28;2.95;;;1.60;91.00;;;;;;5118004;27;20047;-76
2023/03/03 07:51:56;;;;;;;5.43;3.50;;;1.60;91.00;;;;;;5118179;27;20048;-76
2023/03/03 07:54:37;;;;;;;5.90;2.58;;;1.70;91.20;;;;;;5118055;27;20640;-75
2023/03/03 07:57:25;;;;;;;5.00;2.30;;;1.80;91.10;;;;;;5117962;27;20098;-76
2023/03/03 08:00:19;;;;;;;6.20;2.42;;;1.90;91.00;;;;;;5100386;27;20049;-75
2023/03/03 08:02:54;;;;;;;5.55;2.25;;;2.10;91.20;;;;;;5093573;27;20047;-75
2023/03/03 08:05:48;;;;;;;7.03;2.92;;;2.20;91.30;;;;;;5117673;27;20031;-75
2023/03/03 08:08:31;;;;;;;5.97;2.80;;;2.30;91.20;;;;;;5091596;28;20418;-75
2023/03/03 08:10:59;;;;;;;5.00;3.08;;;2.50;90.80;;;;;;5097179;28;20527;-75
2023/03/03 08:13:36;;;;;;;5.53;2.28;;;2.60;91.10;;;;;;5114201;28;20124;-74
2023/03/03 08:16:25;;;;;;;3.38;1.95;;;2.70;90.70;;;;;;5080438;28;20130;-75
2023/03/03 08:18:52;;;;;;;5.07;2.30;;;2.90;90.30;;;;;;5097147;28;20126;-74
2023/03/03 08:21:20;;;;;;;5.20;2.00;;;3.00;90.40;;;;;;5097340;28;20130;-74
2023/03/03 08:23:48;;;;;;;4.70;2.33;;;3.20;89.90;;;;;;5097073;28;20123;-75
2023/03/03 08:26:15;;;;;;;6.38;2.90;;;3.30;89.90;;;;;;5114075;28;20049;-76
2023/03/03 08:28:41;;;;;;;9.70;3.58;;;3.60;90.50;;;;;;5114135;28;20146;-76
2023/03/03 08:31:07;;;;;;;6.20;2.53;;;3.80;89.80;;;;;;5113969;28;20491;-75
2023/03/03 08:33:33;;;;;;;7.95;2.65;;;4.10;90.20;;;;;;5063559;28;20043;-75
2023/03/03 08:35:59;;;;;;;6.15;2.78;;;4.30;89.70;;;;;;5063514;28;20046;-75
2023/03/03 08:38:25;;;;;;;9.50;2.50;;;4.60;89.80;;;;;;5113973;28;20031;-75
2023/03/03 08:40:51;;;;;;;3.00;2.15;;;4.80;89.60;;;;;;5097132;28;20036;-75
2023/03/03 08:43:20;;;;;;;4.47;2.05;;;5.10;89.50;;;;;;5096997;28;20039;-75
2023/03/03 08:45:50;;;;;;;3.45;2.10;;;5.30;89.40;;;;;;5097448;28;20387;-75
2023/03/03 08:48:17;;;;;;;13.00;9.18;;;5.50;89.10;;;;;;5096485;28;20046;-75
2023/03/03 08:50:43;;;;;;;6.32;4.35;;;5.60;88.90;;;;;;5096625;28;20057;-75
2023/03/03 08:53:10;;;;;;;6.53;3.20;;;5.60;88.60;;;;;;5079780;28;20104;-77
2023/03/03 08:55:36;;;;;;;4.47;2.00;;;5.70;88.30;;;;;;5113656;28;20059;-76
2023/03/03 08:58:01;;;;;;;3.40;1.30;;;5.80;87.90;;;;;;5096524;28;20050;-75
2023/03/03 09:00:27;;;;;;;5.50;1.58;;;5.90;87.60;;;;;;5096573;28;20044;-75
2023/03/03 09:02:54;;;;;;;3.58;1.35;;;6.00;87.10;;;;;;5096549;28;20496;-76
2023/03/03 09:05:21;;;;;;;5.50;1.80;;;6.00;86.60;;;;;;5079421;28;20040;-76
2023/03/03 09:07:47;;;;;;;4.93;2.25;;;6.10;86.20;;;;;;5096377;28;20039;-75
2023/03/03 09:10:16;;;;;;;6.00;3.42;;;6.10;85.90;;;;;;5079509;28;20036;-77
2023/03/03 09:12:50;;;;;;;3.45;2.35;;;6.10;85.60;;;;;;5078219;28;20126;-76
2023/03/03 09:15:24;;;;;;;3.47;2.03;;;6.10;85.00;;;;;;5079834;28;20043;-76
2023/03/03 09:17:50;;;;;;;;;;;6.20;84.80;;;;;;5096614;28;20135;-77
2023/03/03 09:20:38;;;;;;;5.50;1.70;;;6.30;84.50;;;;;;5096179;28;19959;-76
2023/03/03 09:23:29;;;;;;;5.20;2.25;;;6.30;84.40;;;;;;5113106;28;20075;-76
2023/03/03 09:25:54;;;;;;;3.65;2.55;;;6.40;83.70;;;;;;5079118;28;20035;-75
2023/03/03 09:28:30;;;;;;;3.55;1.70;;;6.40;83.50;;;;;;5112836;28;20068;-76
2023/03/03 09:30:58;;;;;;;3.80;1.30;;;6.40;83.40;;;;;;5096225;28;20043;-75
2023/03/03 09:33:43;;;;;;;2.03;1.00;;;6.50;83.00;;;;;;5079129;28;20118;-75
2023/03/03 09:36:38;;;;;;;2.58;1.00;;;6.50;82.70;;;;;;5112942;28;20039;-76
2023/03/03 09:39:23;;;;;;;3.05;1.10;;;6.50;82.10;;;;;;5061944;28;20051;-75
2023/03/03 09:42:12;;;;;;;3.40;1.15;;;6.40;81.80;;;;;;5096127;28;20043;-76
2023/03/03 09:44:56;;;;;;;7.07;1.50;;;6.50;81.50;;;;;;5095701;28;20100;-78
2023/03/03 09:47:40;;;;;;;3.33;1.08;;;6.40;81.60;;;;;;5113008;28;20108;-75
2023/03/03 09:50:12;;;;;;;1.77;0.68;;;6.50;81.80;;;;;;5112619;28;20035;-76
2023/03/03 09:52:55;;;;;;;4.00;0.88;;;6.50;81.20;;;;;;5112727;28;20051;-76
2023/03/03 09:55:45;;;;;;;4.10;1.10;;;6.50;80.50;;;;;;5078937;28;20099;-76
2023/03/03 09:58:19;;;;;;;4.95;1.50;;;6.50;80.30;;;;;;5112422;28;20087;-77
2023/03/03 10:01:04;;;;;;;;;;;6.50;80.20;;;;;;5079253;28;20043;-76
2023/03/03 10:03:38;;;;;;;5.97;2.08;;;6.50;79.90;;;;;;5078812;28;19920;-77
2023/03/03 10:06:14;;;;;;;3.25;1.08;;;6.50;79.80;;;;;;5112549;28;20039;-77
2023/03/03 10:09:02;;;;;;;7.47;1.40;;;6.60;79.70;;;;;;5112364;28;20130;-77
2023/03/03 10:11:49;;;;;;;3.67;1.30;;;6.60;79.70;;;;;;5071976;28;20044;-77
2023/03/03 10:14:23;;;;;;;3.75;1.13;;;6.60;79.60;;;;;;5078924;28;20445;-78
2023/03/03 10:16:51;;;;;;;;;;;6.70;79.40;;;;;;5079304;28;20387;-76
2023/03/03 10:19:27;;;;;;;5.05;1.63;;;6.70;79.10;;;;;;5095650;28;19923;-76
2023/03/03 10:22:15;;;;;;;5.30;1.52;;;6.70;79.50;;;;;;5112225;28;20055;-77
2023/03/03 10:24:56;;;;;;;4.82;1.35;;;6.70;78.70;;;;;;5082488;28;20043;-77
2023/03/03 10:27:52;;;;;;;4.15;0.80;;;6.60;78.80;;;;;;5082476;28;20100;-76
2023/03/03 10:30:46;;;;;;;2.97;1.08;;;6.60;78.50;;;;;;5099699;28;20048;-77
2023/03/03 10:33:35;;;;;;;3.17;1.05;;;6.60;78.30;;;;;;5082476;28;20126;-76
2023/03/03 10:36:21;;;;;;;2.33;0.98;;;6.70;77.80;;;;;;5116596;28;20036;-76
2023/03/03 10:38:57;;;;;;;2.35;0.60;;;6.70;77.50;;;;;;5116076;28;20046;-75
2023/03/03 10:41:29;;;;;;;3.55;0.75;;;6.70;76.60;;;;;;5099068;28;20040;-76
2023/03/03 10:44:04;;;;;;;2.75;0.80;;;6.70;75.30;;;;;;5116085;28;20403;-76
2023/03/03 10:46:50;;;;;;;3.60;0.80;;;6.70;75.50;;;;;;5082196;28;20054;-76
2023/03/03 10:49:24;;;;;;;6.00;0.88;;;6.70;75.70;;;;;;5082080;28;20434;-77
2023/03/03 10:51:53;;;;;;;3.25;0.80;;;6.80;75.00;;;;;;5116058;28;20035;-77
2023/03/03 10:54:40;;;;;;;3.95;0.80;;;6.70;75.40;;;;;;5116123;28;20429;-77
2023/03/03 10:57:31;;;;;;;6.25;0.82;;;6.80;75.80;;;;;;5115695;28;20052;-76
2023/03/03 11:00:13;;;;;;;3.35;0.80;;;6.80;76.00;;;;;;5099031;28;20069;-76
2023/03/03 11:02:39;;;;;;;8.38;0.90;;;6.90;75.50;;;;;;5098785;28;20479;-77
2023/03/03 11:05:14;;;;;;;3.33;0.80;;;7.00;75.50;;;;;;5115693;28;20046;-78
2023/03/03 11:07:56;;;;;;;3.00;0.80;;;7.00;75.40;;;;;;5081931;28;20043;-77
2023/03/03 11:11:03;;;;;;;2.50;0.60;;;7.20;75.20;;;;;;5081627;28;20476;-76
2023/03/03 11:13:49;;;;;;;2.97;0.55;;;7.50;74.80;;;;;;5036434;28;20040;-76
2023/03/03 11:17:36;;;;;;;2.67;0.65;;;7.90;74.30;;;;;;5020688;28;20043;-76
2023/03/03 11:20:19;;;;;;;4.38;0.88;;;8.10;73.90;;;;;;5027650;28;20047;-77
2023/03/03 11:22:53;;;;;;;1.20;0.68;;;8.20;72.70;;;;;;5015720;28;20059;-76
2023/03/03 11:25:31;;;;;;;2.30;0.80;;;8.20;72.40;;;;;;5092316;27;20184;-76
2023/03/03 11:28:32;;;;;;;5.43;0.80;;;8.20;72.50;;;;;;5101566;27;20039;-76
2023/03/03 11:31:24;;;;;;;2.47;0.70;;;8.10;72.00;;;;;;5118595;27;20075;-76
2023/03/03 11:34:12;;;;;;;4.57;0.80;;;8.10;71.90;;;;;;5090556;27;20078;-76
2023/03/03 11:36:48;;;;;;;6.13;1.00;;;8.10;71.80;;;;;;5101417;27;20474;-77
2023/03/03 11:39:21;;;;;;;6.10;1.05;;;8.10;71.70;;;;;;5118394;27;20079;-77
2023/03/03 11:41:59;;;;;;;4.63;1.08;;;8.10;71.00;;;;;;5101432;27;20498;-77
2023/03/03 11:44:31;;;;;;;5.15;1.60;;;8.20;70.90;;;;;;5118393;27;20564;-77
2023/03/03 11:47:15;;;;;;;5.22;1.13;;;8.20;71.30;;;;;;5118247;27;20461;-77
2023/03/03 11:50:02;;;;;;;9.60;1.75;;;8.30;71.30;;;;;;5118256;27;20074;-77
2023/03/03 11:52:44;;;;;;;2.28;1.10;;;8.30;70.40;;;;;;5118524;27;20043;-76
2023/03/03 11:55:19;;;;;;;7.13;1.38;;;8.40;69.90;;;;;;5097471;28;20399;-76
2023/03/03 11:57:56;;;;;;;9.13;1.27;;;8.40;69.60;;;;;;5097751;28;20040;-76
2023/03/03 12:00:28;;;;;;;6.35;1.35;;;8.20;70.70;;;;;;5080721;28;20176;-76
2023/03/03 12:03:25;;;;;;;4.95;1.23;;;8.20;71.20;;;;;;5097905;28;20044;-76
2023/03/03 12:06:05;;;;;;;5.80;1.10;;;8.20;70.80;;;;;;5087168;28;20508;-76
2023/03/03 12:08:42;;;;;;;5.30;1.13;;;8.10;70.00;;;;;;5097251;28;20071;-76
2023/03/03 12:11:38;;;;;;;7.82;2.85;;;8.10;70.50;;;;;;5097319;28;20047;-76
2023/03/03 12:14:26;;;;;;;8.68;1.60;;;8.10;70.90;;;;;;5097304;28;20122;-75
2023/03/03 12:17:11;;;;;;;6.07;1.40;;;8.10;71.10;;;;;;5097245;28;20039;-75
2023/03/03 12:19:45;;;;;;;;;;;8.20;71.50;;;;;;5097521;28;20100;-76
2023/03/03 12:22:30;;;;;;;5.47;1.50;;;8.20;71.70;;;;;;5114109;28;19915;-76
2023/03/03 12:25:01;;;;;;;6.45;1.55;;;8.30;71.50;;;;;;5097377;28;20088;-75
2023/03/03 12:27:55;;;;;;;7.07;1.92;;;8.30;71.40;;;;;;5096965;28;20047;-77
2023/03/03 12:30:32;;;;;;;7.63;2.13;;;8.30;71.60;;;;;;5097115;28;20066;-76
2023/03/03 12:33:21;;;;;;;8.80;1.50;;;8.20;72.20;;;;;;5096414;28;20042;-74
2023/03/03 12:36:19;;;;;;;10.40;2.20;;;8.10;72.30;;;;;;5096220;28;20150;-74
2023/03/03 12:38:53;;;;;;;7.93;2.03;;;8.20;71.90;;;;;;5074461;28;20047;-74
2023/03/03 12:41:44;;;;;;;8.15;1.92;;;8.10;71.40;;;;;;5096529;28;20390;-74
2023/03/03 12:44:36;;;;;;;13.40;2.00;;;8.00;71.60;;;;;;5096440;28;20075;-74
2023/03/03 12:47:32;;;;;;;10.00;2.28;;;8.20;70.10;;;;;;5049487;28;20102;-74
2023/03/03 12:50:07;;;;;;;9.45;2.30;;;8.30;70.80;;;;;;5079435;28;20483;-75
2023/03/03 12:52:50;;;;;;;9.57;1.83;;;8.40;70.70;;;;;;5096592;28;20381;-74
2023/03/03 12:55:28;;;;;;;;;;;8.40;70.00;;;;;;5096660;28;20437;-75
2023/03/03 12:58:13;;;;;;;11.32;2.40;;;8.40;70.40;;;;;;5113157;28;20002;-75
2023/03/03 13:01:20;;;;;;;10.82;2.50;;;8.40;70.70;;;;;;5096491;28;20039;-75
2023/03/03 13:03:59;;;;;;;10.00;3.33;;;8.50;70.70;;;;;;5082949;28;20043;-75
2023/03/03 13:06:34;;;;;;;12.13;2.40;;;8.50;70.90;;;;;;5096213;28;20078;-75
2023/03/03 13:09:18;;;;;;;12.65;3.90;;;8.50;71.60;;;;;;5096195;28;20369;-74
2023/03/03 13:11:56;;;;;;;11.73;3.00;;;8.40;72.40;;;;;;5096259;28;20038;-74
2023/03/03 13:14:29;;;;;;;18.40;2.95;;;8.30;72.70;;;;;;5095897;28;20036;-75
2023/03/03 13:17:04;;;;;;;12.90;2.85;;;8.20;72.90;;;;;;5095953;28;20028;-75
2023/03/03 13:19:53;;;;;;;11.05;3.45;;;8.10;72.80;;;;;;5078972;28;20050;-75
2023/03/03 13:22:24;;;;;;;11.07;2.70;;;8.10;73.10;;;;;;5095920;28;20039;-76
2023/03/03 13:25:22;;;;;;;20.48;3.63;;;8.10;73.00;;;;;;5104708;27;20042;-76
2023/03/03 13:27:54;;;;;;;18.83;3.58;;;8.10;72.70;;;;;;5109241;27;20092;-75